Map

Track Data

SID SEASON NUMBER BASIN SUBBASIN NAME ISO_TIME NATURE LAT LON WMO_WIND WMO_PRES WMO_AGENCY TRACK_TYPE DIST2LAND LANDFALL IFLAG USA_AGENCY USA_ATCF_ID USA_LAT USA_LON USA_RECORD USA_STATUS USA_WIND USA_PRES USA_SSHS USA_R34_NE USA_R34_SE USA_R34_SW USA_R34_NW USA_R50_NE USA_R50_SE USA_R50_SW USA_R50_NW USA_R64_NE USA_R64_SE USA_R64_SW USA_R64_NW USA_POCI USA_ROCI USA_RMW USA_EYE TOKYO_LAT TOKYO_LON TOKYO_GRADE TOKYO_WIND TOKYO_PRES TOKYO_R50_DIR TOKYO_R50_LONG TOKYO_R50_SHORT TOKYO_R30_DIR TOKYO_R30_LONG TOKYO_R30_SHORT TOKYO_LAND CMA_LAT CMA_LON CMA_CAT CMA_WIND CMA_PRES HKO_LAT HKO_LON HKO_CAT HKO_WIND HKO_PRES NEWDELHI_LAT NEWDELHI_LON NEWDELHI_GRADE NEWDELHI_WIND NEWDELHI_PRES NEWDELHI_CI NEWDELHI_DP NEWDELHI_POCI REUNION_LAT REUNION_LON REUNION_TYPE REUNION_WIND REUNION_PRES REUNION_TNUM REUNION_CI REUNION_RMW REUNION_R34_NE REUNION_R34_SE REUNION_R34_SW REUNION_R34_NW REUNION_R50_NE REUNION_R50_SE REUNION_R50_SW REUNION_R50_NW REUNION_R64_NE REUNION_R64_SE REUNION_R64_SW REUNION_R64_NW BOM_LAT BOM_LON BOM_TYPE BOM_WIND BOM_PRES BOM_TNUM BOM_CI BOM_RMW BOM_R34_NE BOM_R34_SE BOM_R34_SW BOM_R34_NW BOM_R50_NE BOM_R50_SE BOM_R50_SW BOM_R50_NW BOM_R64_NE BOM_R64_SE BOM_R64_SW BOM_R64_NW BOM_ROCI BOM_POCI BOM_EYE BOM_POS_METHOD BOM_PRES_METHOD NADI_LAT NADI_LON NADI_CAT NADI_WIND NADI_PRES WELLINGTON_LAT WELLINGTON_LON WELLINGTON_WIND WELLINGTON_PRES DS824_LAT DS824_LON DS824_STAGE DS824_WIND DS824_PRES TD9636_LAT TD9636_LON TD9636_STAGE TD9636_WIND TD9636_PRES TD9635_LAT TD9635_LON TD9635_WIND TD9635_PRES TD9635_ROCI NEUMANN_LAT NEUMANN_LON NEUMANN_CLASS NEUMANN_WIND NEUMANN_PRES MLC_LAT MLC_LON MLC_CLASS MLC_WIND MLC_PRES USA_GUST BOM_GUST BOM_GUST_PER REUNION_GUST REUNION_GUST_PER USA_SEAHGT USA_SEARAD_NE USA_SEARAD_SE USA_SEARAD_SW USA_SEARAD_NW STORM_SPEED STORM_DIR
1960016S13179 1960 2 SP MM NOT_NAMED 1960-01-15 12:00:00 TS -13.5000 179.200 main 309 309 O________OO___ jtwc_sh SH091960 -13.5000 179.200 -1 -13.5000 179.200 TC 35 -13.5000 179.200 2 5 43
1960016S13179 1960 2 SP MM NOT_NAMED 1960-01-15 15:00:00 TS -13.3022 179.390 main 327 327 P________PP___ SH091960 -13.2900 179.388 -1 -13.2900 179.388 TC 35 -13.3264 179.395 2 6 46
1960016S13179 1960 2 SP MM NOT_NAMED 1960-01-15 18:00:00 TS -13.1174 179.604 main 347 347 O________OP___ jtwc_sh SH091960 -13.1000 179.600 -1 -13.1000 179.600 TC 35 -13.1522 179.612 2 6 53
1960016S13179 1960 2 SP MM NOT_NAMED 1960-01-15 21:00:00 TS -12.9539 179.866 main 358 358 P________PP___ SH091960 -12.9424 179.862 -1 -12.9424 179.862 TC 35 -12.9769 179.873 2 7 61
1960016S13179 1960 2 SP MM NOT_NAMED 1960-01-16 00:00:00 TS -12.8000 180.200 main 381 381 O________OO___ jtwc_sh SH091960 -12.8000 -179.800 -1 -12.8000 180.200 TC 35 -12.8000 -179.800 2 8 67
1960016S13179 1960 2 SP MM NOT_NAMED 1960-01-16 03:00:00 TS -12.6365 180.620 main 410 410 P________PP___ SH091960 -12.6425 -179.372 -1 -12.6425 -179.372 TC 35 -12.6244 -179.395 2 9 70
1960016S13179 1960 2 SP MM NOT_NAMED 1960-01-16 06:00:00 TS -12.4893 181.088 main 433 433 O________OP___ jtwc_sh SH091960 -12.5000 -178.900 -1 -12.5000 181.100 TC 35 -12.4679 -178.937 2 10 74
1960016S13179 1960 2 SP MM NOT_NAMED 1960-01-16 09:00:00 TS -12.3742 181.556 main 463 463 P________PP___ SH091960 -12.3850 -178.435 -1 -12.3850 -178.435 TC 35 -12.3525 -178.460 2 9 78
1960016S13179 1960 2 SP MM NOT_NAMED 1960-01-16 12:00:00 TS -12.3000 182.000 main 491 491 O________OO___ jtwc_sh SH091960 -12.3000 -178.000 -1 -12.3000 182.000 TC 35 -12.3000 -178.000 2 8 78
1960016S13179 1960 2 SP MM NOT_NAMED 1960-01-16 15:00:00 TS -12.2093 182.358 main 522 509 P________PP___ SH091960 -12.1974 -177.642 -1 -12.1974 -177.642 TC 35 -12.2331 -177.643 2 7 83
1960016S13179 1960 2 SP MM NOT_NAMED 1960-01-16 18:00:00 TS -12.2147 182.700 main 509 474 O________OP___ jtwc_sh SH091960 -12.2000 -177.300 -1 -12.2000 182.700 TC 35 -12.2440 -177.300 2 7 102
1960016S13179 1960 2 SP MM NOT_NAMED 1960-01-16 21:00:00 TS -12.3525 183.064 main 461 410 P________PP___ SH091960 -12.3373 -176.937 -1 -12.3373 -176.937 TC 35 -12.3830 -176.932 2 9 122
1960016S13179 1960 2 SP MM NOT_NAMED 1960-01-17 00:00:00 TS -12.7000 183.500 main 410 347 O________OO___ jtwc_sh SH091960 -12.7000 -176.500 -1 -12.7000 183.500 TC 35 -12.7000 -176.500 2 14 135
1960016S13179 1960 2 SP MM NOT_NAMED 1960-01-17 03:00:00 TS -13.3107 184.056 main 336 284 P________PP___ SH091960 -13.3250 -175.938 -1 -13.3250 -175.938 TC 35 -13.2820 -175.957 2 18 140
1960016S13179 1960 2 SP MM NOT_NAMED 1960-01-17 06:00:00 TS -14.0768 184.686 main 278 251 O________OP___ jtwc_sh SH091960 -14.1000 -175.300 -1 -14.1000 184.700 TC 35 -14.0303 -175.342 2 20 142
1960016S13179 1960 2 SP MM NOT_NAMED 1960-01-17 09:00:00 TS -14.8710 185.329 main 257 244 P________PP___ SH091960 -14.8873 -174.665 -1 -14.8873 -174.665 TC 35 -14.8383 -174.681 2 20 140
1960016S13179 1960 2 SP MM NOT_NAMED 1960-01-17 12:00:00 TS -15.6000 186.000 main 251 248 O________OO___ jtwc_sh SH091960 -15.6000 -174.000 -1 -15.6000 186.000 TC 35 -15.6000 -174.000 2 18 132
1960016S13179 1960 2 SP MM NOT_NAMED 1960-01-17 15:00:00 TS -16.0896 186.720 main 268 265 P________PP___ SH091960 -16.0799 -173.299 -1 -16.0799 -173.299 TC 35 -16.1090 -173.241 2 17 124
1960016S13179 1960 2 SP MM NOT_NAMED 1960-01-17 18:00:00 TS -16.5214 187.438 main 302 302 O________OP___ jtwc_sh SH091960 -16.5000 -172.600 -1 -16.5000 187.400 TC 35 -16.5643 -172.485 2 17 124
1960016S13179 1960 2 SP MM NOT_NAMED 1960-01-17 21:00:00 TS -17.0059 188.151 main 360 360 P________PP___ SH091960 -16.9903 -171.868 -1 -16.9903 -171.868 TC 35 -17.0373 -171.811 2 16 132
1960016S13179 1960 2 SP MM NOT_NAMED 1960-01-18 00:00:00 TS -17.6000 188.700 main 436 436 O________OO___ jtwc_sh SH091960 -17.6000 -171.300 -1 -17.6000 188.700 TC 35 -17.6000 -171.300 2 16 151
1960016S13179 1960 2 SP MM NOT_NAMED 1960-01-18 03:00:00 TS -18.3898 188.942 main 528 528 P________PP___ SH091960 -18.4047 -171.052 -1 -18.4047 -171.052 TC 35 -18.3601 -171.070 2 17 170
1960016S13179 1960 2 SP MM NOT_NAMED 1960-01-18 06:00:00 TS -19.2720 188.999 main 628 628 O________OP___ jtwc_sh SH091960 -19.3000 -171.000 -1 -19.3000 189.000 TC 35 -19.2159 -171.003 2 18 178
1960016S13179 1960 2 SP MM NOT_NAMED 1960-01-18 09:00:00 TS -20.1429 188.997 main 716 716 P________PP___ SH091960 -20.1575 -170.999 -1 -20.1575 -170.999 TC 35 -20.1138 -171.010 2 17 179
1960016S13179 1960 2 SP MM NOT_NAMED 1960-01-18 12:00:00 TS -21.0000 189.000 main 815 815 O________OO___ jtwc_sh SH091960 -21.0000 -171.000 -1 -21.0000 189.000 TC 35 -21.0000 -171.000 2 17 176
1960016S13179 1960 2 SP MM NOT_NAMED 1960-01-18 15:00:00 TS -21.8208 189.116 main 905 905 P________PP___ SH091960 -21.8150 -170.887 -1 -21.8150 -170.887 TC 35 -21.8325 -170.876 2 16 170
1960016S13179 1960 2 SP MM NOT_NAMED 1960-01-18 18:00:00 TS -22.6130 189.296 main 997 997 O________OP___ jtwc_sh SH091960 -22.6000 -170.700 -1 -22.6000 189.300 TC 35 -22.6391 -170.711 2 16 167
1960016S13179 1960 2 SP MM NOT_NAMED 1960-01-18 21:00:00 TS -23.3869 189.507 main 1088 1088 P________PP___ SH091960 -23.3798 -170.495 -1 -23.3798 -170.495 TC 35 -23.4011 -170.491 2 16 163
1960016S13179 1960 2 SP MM NOT_NAMED 1960-01-19 00:00:00 TS -24.1000 189.800 main 1171 1171 O________OO___ jtwc_sh SH091960 -24.1000 -170.200 -1 -24.1000 189.800 TC 35 -24.1000 -170.200 2 15 155
1960016S13179 1960 2 SP MM NOT_NAMED 1960-01-19 03:00:00 TS -24.7382 190.207 main 1244 1244 P________PP___ SH091960 -24.7376 -169.780 -1 -24.7376 -169.780 TC 35 -24.7394 -169.818 2 14 146
1960016S13179 1960 2 SP MM NOT_NAMED 1960-01-19 06:00:00 TS -25.3043 190.677 main 1321 1321 O________OP___ jtwc_sh SH091960 -25.3000 -169.300 -1 -25.3000 190.700 TC 35 -25.3130 -169.368 2 14 142
1960016S13179 1960 2 SP MM NOT_NAMED 1960-01-19 09:00:00 TS -25.8249 191.139 main 1385 1385 P________PP___ SH091960 -25.8223 -168.850 -1 -25.8223 -168.850 TC 35 -25.8300 -168.884 2 13 140
1960016S13179 1960 2 SP MM NOT_NAMED 1960-01-19 12:00:00 TS -26.3000 191.600 main 1452 1452 O________OO___ jtwc_sh SH091960 -26.3000 -168.400 -1 -26.3000 191.600 TC 35 -26.3000 -168.400 2 12 139
1960016S13179 1960 2 SP MM NOT_NAMED 1960-01-19 15:00:00 TS -26.7592 192.057 main 1521 1521 P________PP___ SH091960 -26.7724 -167.942 -1 -26.7724 -167.942 TC 35 -26.7328 -167.945 2 12 138
1960016S13179 1960 2 SP MM NOT_NAMED 1960-01-19 18:00:00 TS -27.1793 192.495 main 1575 1575 O________OP___ jtwc_sh SH091960 -27.2000 -167.500 -1 -27.2000 192.500 TC 35 -27.1378 -167.516 2 11 136
1960016S13179 1960 2 SP MM NOT_NAMED 1960-01-19 21:00:00 TS -27.5531 192.905 main 1631 1631 P________PP___ SH091960 -27.5677 -167.090 -1 -27.5677 -167.090 TC 35 -27.5239 -167.104 2 10 135
1960016S13179 1960 2 SP MM NOT_NAMED 1960-01-20 00:00:00 TS -27.9000 193.300 main 1676 O________OO___ jtwc_sh SH091960 -27.9000 -166.700 -1 -27.9000 193.300 TC 35 -27.9000 -166.700 2 10 135

Digital Typhoon Data and Search

About IBTrACS Database

This database is a web-friendly format of International Best Track Archive for Climate Stewardship (IBTrACS), a global best track data archive curated by NOAA dating back to 1842.

Updated: 2021-10-21